createdAt,value
2018-03-25T15:46:58.967Z,43.81
2018-03-25T15:49:28.814Z,44.18
2018-03-25T15:52:03.998Z,44.44
2018-03-25T15:54:36.554Z,44.59
2018-03-25T15:57:19.571Z,45.00
2018-03-25T15:59:47.723Z,44.56
2018-03-25T16:02:18.311Z,44.91
2018-03-25T16:07:26.558Z,45.33
2018-03-25T16:09:54.235Z,45.83
2018-03-25T16:12:21.867Z,45.77
2018-03-25T16:14:49.536Z,46.47
2018-03-25T16:17:17.182Z,46.25
2018-03-25T16:19:44.798Z,45.96
2018-03-25T16:22:12.418Z,46.35
2018-03-25T16:24:40.071Z,46.55
2018-03-25T16:27:07.793Z,46.55
2018-03-25T16:29:35.492Z,46.06
2018-03-25T16:32:03.068Z,46.49
2018-03-25T16:34:30.706Z,47.51
2018-03-25T16:36:58.330Z,47.85
2018-03-25T16:39:26.112Z,47.90
2018-03-25T16:41:53.720Z,48.12
2018-03-25T16:44:21.363Z,48.58
2018-03-25T16:46:49.024Z,48.82
2018-03-25T16:49:16.687Z,49.20
2018-03-25T16:51:44.305Z,49.41
2018-03-25T16:54:11.919Z,49.41
2018-03-25T16:56:39.546Z,49.65
2018-03-25T16:59:07.185Z,50.12
2018-03-25T17:01:34.802Z,50.10
2018-03-25T17:04:02.451Z,50.18
2018-03-25T17:06:30.079Z,50.02
2018-03-25T17:08:57.710Z,49.83
2018-03-25T17:11:25.336Z,50.25
2018-03-25T17:13:52.988Z,50.10
2018-03-25T17:16:20.602Z,50.20
2018-03-25T17:18:48.207Z,50.32
2018-03-25T17:21:15.981Z,50.47
2018-03-25T17:23:47.158Z,50.71
2018-03-25T17:26:15.685Z,51.21
2018-03-25T17:28:43.324Z,51.09
2018-03-25T17:31:11.332Z,51.63
2018-03-25T17:33:39.379Z,51.74
2018-03-25T17:36:07.364Z,52.05
2018-03-25T17:38:36.754Z,52.01
2018-03-25T17:41:06.427Z,52.27
2018-03-25T17:43:38.151Z,52.43
2018-03-25T17:46:05.987Z,52.55
2018-03-25T17:48:36.338Z,52.58
2018-03-25T17:51:04.271Z,52.80
2018-03-25T17:53:32.593Z,52.94
2018-03-25T17:56:02.782Z,53.29
2018-03-25T17:58:30.407Z,53.41
2018-03-25T18:00:58.199Z,53.69
2018-03-25T18:03:27.858Z,53.76
2018-03-25T18:05:58.534Z,53.87
2018-03-25T18:08:26.450Z,53.69
2018-03-25T18:10:55.810Z,54.08
2018-03-25T18:13:23.585Z,54.16
2018-03-25T18:15:57.610Z,54.12
2018-03-25T18:18:32.799Z,53.92
2018-03-25T18:21:04.428Z,54.07
2018-03-25T18:26:36.385Z,53.92
2018-03-25T18:29:04.031Z,53.56
2018-03-25T18:31:31.702Z,53.86
2018-03-25T18:33:59.410Z,53.93
2018-03-25T18:36:27.037Z,53.69
2018-03-25T18:38:54.762Z,53.62
2018-03-25T18:41:22.369Z,53.41
2018-03-25T18:43:50.031Z,53.48
2018-03-25T18:46:17.631Z,53.44
2018-03-25T18:48:45.291Z,53.85
2018-03-25T18:51:12.965Z,53.41
2018-03-25T18:53:40.615Z,53.46
2018-03-25T18:56:08.256Z,53.39
2018-03-25T18:58:35.930Z,53.29
2018-03-25T19:01:03.579Z,52.99
2018-03-25T19:03:31.238Z,53.15
2018-03-25T19:05:58.897Z,53.38
2018-03-25T19:11:20.738Z,53.56
2018-03-25T19:13:48.736Z,53.33
2018-03-25T19:16:19.412Z,53.52
2018-03-25T19:21:31.118Z,53.29
2018-03-25T19:24:01.988Z,52.92
2018-03-25T19:26:39.553Z,52.88
2018-03-25T19:29:17.580Z,53.20
2018-03-25T19:31:49.886Z,53.46
2018-03-25T19:38:21.595Z,53.62
2018-03-25T19:40:49.720Z,53.65
2018-03-25T19:43:18.788Z,53.80
2018-03-25T19:45:46.437Z,54.02
2018-03-25T19:48:14.265Z,54.57
2018-03-25T19:50:42.593Z,55.05
2018-03-25T19:53:10.318Z,55.51
2018-03-25T19:55:38.008Z,55.47
2018-03-25T19:58:05.660Z,55.50
2018-03-25T20:00:33.769Z,55.38
2018-03-25T20:03:01.936Z,55.63
2018-03-25T20:05:29.684Z,55.58
2018-03-25T20:07:57.356Z,55.58
2018-03-25T20:10:25.092Z,55.52
2018-03-25T20:12:52.985Z,55.53
2018-03-25T20:15:20.738Z,56.03
2018-03-25T20:17:48.755Z,56.22
2018-03-25T20:20:16.735Z,56.50
2018-03-25T20:22:44.439Z,56.41
2018-03-25T20:25:12.323Z,56.78
2018-03-25T20:27:40.013Z,57.13
2018-03-25T20:30:07.653Z,57.47
2018-03-25T20:32:35.402Z,57.02
2018-03-25T20:35:04.192Z,57.34
2018-03-25T20:37:31.956Z,57.46
2018-03-25T20:39:59.642Z,57.65
2018-03-25T20:42:27.358Z,57.51
2018-03-25T20:44:55.131Z,57.52
2018-03-25T20:47:23.484Z,57.84
2018-03-25T20:52:24.499Z,58.08
2018-03-25T20:54:52.141Z,58.26
2018-03-25T20:57:19.973Z,58.38
2018-03-25T20:59:47.674Z,58.48
2018-03-25T21:02:15.299Z,58.45
2018-03-25T21:04:42.977Z,58.34
2018-03-25T21:07:10.643Z,58.05
2018-03-25T21:09:38.316Z,57.86
2018-03-25T21:12:05.911Z,57.90
2018-03-25T21:14:33.574Z,58.03
2018-03-25T21:17:01.301Z,57.98
2018-03-25T21:19:28.949Z,57.96
2018-03-25T21:21:56.777Z,58.08
2018-03-25T21:24:24.439Z,58.08
2018-03-25T21:26:52.086Z,57.79
2018-03-25T21:29:19.744Z,58.07
2018-03-25T21:31:47.371Z,58.29
2018-03-25T21:34:15.021Z,58.02
2018-03-25T21:36:42.783Z,58.36
2018-03-25T21:39:10.688Z,58.87
2018-03-25T21:41:38.348Z,59.36
2018-03-25T21:44:06.080Z,59.45
2018-03-25T21:46:33.693Z,59.63
2018-03-25T21:49:01.305Z,59.85
2018-03-25T21:51:28.951Z,59.88
2018-03-25T21:53:56.674Z,60.06
2018-03-25T21:56:24.331Z,60.09
2018-03-25T21:58:51.995Z,60.23
2018-03-25T22:01:19.695Z,60.32
2018-03-25T22:03:47.324Z,60.47
2018-03-25T22:06:15.004Z,60.53
2018-03-25T22:08:42.646Z,60.51
2018-03-25T22:11:10.340Z,60.17
2018-03-25T22:13:38.080Z,60.24
2018-03-25T22:16:05.795Z,59.85
2018-03-25T22:18:33.534Z,59.99
2018-03-25T22:21:01.536Z,59.90
2018-03-25T22:23:29.267Z,59.60
2018-03-25T22:25:56.986Z,59.96
2018-03-25T22:28:24.715Z,60.17
2018-03-25T22:30:52.414Z,60.52
2018-03-25T22:33:20.127Z,61.11
2018-03-25T22:35:49.657Z,61.46
2018-03-25T22:38:17.396Z,62.02
2018-03-25T22:40:45.071Z,62.47
2018-03-25T22:43:12.811Z,62.61
2018-03-25T22:45:40.439Z,62.84
2018-03-25T22:48:08.307Z,62.98
2018-03-25T22:50:36.847Z,63.18
2018-03-25T22:53:04.690Z,63.39
2018-03-25T22:55:32.630Z,63.42
2018-03-25T22:58:01.558Z,63.35
2018-03-25T23:00:29.182Z,63.17
2018-03-25T23:02:57.058Z,63.61
2018-03-25T23:05:24.695Z,63.79
2018-03-25T23:07:52.402Z,64.07
2018-03-25T23:10:20.006Z,64.22
2018-03-25T23:12:47.646Z,64.62
2018-03-25T23:15:15.349Z,64.63
2018-03-25T23:17:43.035Z,64.94
2018-03-25T23:20:10.641Z,64.84
2018-03-25T23:22:38.372Z,64.84
2018-03-25T23:25:05.990Z,65.17
2018-03-25T23:27:33.666Z,65.04
2018-03-25T23:30:01.271Z,65.00
2018-03-25T23:32:28.912Z,65.09
2018-03-25T23:34:56.510Z,65.46
2018-03-25T23:37:24.196Z,65.66
2018-03-25T23:39:51.840Z,65.82
2018-03-25T23:42:19.613Z,65.81
2018-03-25T23:44:47.254Z,65.70
2018-03-25T23:47:14.860Z,65.47
2018-03-25T23:49:42.506Z,65.58
2018-03-25T23:52:10.146Z,65.70
2018-03-25T23:54:37.773Z,65.89
2018-03-25T23:57:05.445Z,66.14
2018-03-25T23:59:33.083Z,66.41
